createdAt,value
2023-05-06T00:00:22.609Z,1017.91
2023-05-06T00:00:52.983Z,1017.71
2023-05-06T00:01:24.390Z,1017.71
2023-05-06T00:01:55.616Z,1017.71
2023-05-06T00:02:26.195Z,1017.71
2023-05-06T00:02:58.404Z,1017.91
2023-05-06T00:03:28.167Z,1017.91
2023-05-06T00:03:59.774Z,1017.91
2023-05-06T00:04:31.177Z,1017.91
2023-05-06T00:05:02.100Z,1017.81
2023-05-06T00:05:33.007Z,1017.81
2023-05-06T00:06:03.326Z,1017.91
2023-05-06T00:06:34.472Z,1017.91
2023-05-06T00:07:05.549Z,1017.91
2023-05-06T00:07:36.577Z,1017.91
2023-05-06T00:08:08.157Z,1017.81
2023-05-06T00:26:29.612Z,1017.81
2023-05-06T00:27:08.055Z,1017.81
2023-05-06T00:27:21.216Z,1017.81
2023-05-06T00:27:52.477Z,1017.81
2023-05-06T00:28:45.218Z,1017.91
2023-05-06T00:29:05.421Z,1017.81
2023-05-06T00:29:24.905Z,1017.81
2023-05-06T00:29:50.044Z,1017.71
2023-05-06T00:30:24.143Z,1017.71
2023-05-06T00:30:57.161Z,1017.81
2023-05-06T00:31:23.427Z,1017.81
2023-05-06T00:32:01.615Z,1017.81
2023-05-06T00:32:28.307Z,1017.81
2023-05-06T00:33:06.329Z,1017.71
2023-05-06T00:34:12.226Z,1017.71
2023-05-06T00:35:17.765Z,1017.81
2023-05-06T00:35:55.685Z,1017.71
2023-05-06T00:36:03.997Z,1017.71
2023-05-06T00:36:34.883Z,1017.71
2023-05-06T00:37:09.790Z,1017.81
2023-05-06T00:37:40.084Z,1017.81
2023-05-06T00:38:07.437Z,1017.61
2023-05-06T00:38:37.420Z,1017.61
2023-05-06T00:39:08.392Z,1017.71
2023-05-06T00:39:38.862Z,1017.71
2023-05-06T00:40:10.537Z,1017.81
2023-05-06T00:40:58.645Z,1017.81
2023-05-06T00:41:14.692Z,1017.91
2023-05-06T00:42:25.650Z,1017.91
2023-05-06T00:42:52.101Z,1017.51
2023-05-06T00:43:19.753Z,1017.91
2023-05-06T00:43:48.189Z,1017.91
2023-05-06T00:44:18.615Z,1017.91
2023-05-06T00:44:49.867Z,1017.91
2023-05-06T00:45:22.887Z,1017.81
2023-05-06T00:45:51.121Z,1017.71
2023-05-06T00:46:22.629Z,1017.71
2023-05-06T00:46:53.300Z,1017.81
2023-05-06T00:47:57.369Z,1017.81
2023-05-06T00:48:27.958Z,1017.81
2023-05-06T00:48:58.014Z,1017.71
2023-05-06T00:49:28.983Z,1017.71
2023-05-06T00:49:59.698Z,1017.71
2023-05-06T00:50:31.935Z,1017.71
2023-05-06T00:51:02.345Z,1017.81
2023-05-06T00:51:32.830Z,1017.81
2023-05-06T00:52:03.580Z,1017.71
2023-05-06T00:52:34.217Z,1017.71
2023-05-06T00:53:05.282Z,1017.91
2023-05-06T00:53:37.040Z,1017.91
2023-05-06T00:54:07.968Z,1017.91
2023-05-06T00:54:38.681Z,1017.91
2023-05-06T00:55:12.593Z,1017.91
2023-05-06T00:55:39.772Z,1017.91
2023-05-06T00:57:13.172Z,1017.91
2023-05-06T00:57:43.696Z,1017.81
2023-05-06T00:58:15.069Z,1017.81
2023-05-06T00:58:46.763Z,1017.81
2023-05-06T00:59:18.052Z,1017.91
2023-05-06T00:59:48.845Z,1017.91
2023-05-06T01:00:34.322Z,1018.01
2023-05-06T01:01:20.747Z,1017.71
2023-05-06T01:01:52.364Z,1017.81
2023-05-06T01:02:36.249Z,1017.81
2023-05-06T01:02:54.369Z,1017.71
2023-05-06T01:03:25.808Z,1017.71
2023-05-06T01:03:55.897Z,1017.91
2023-05-06T01:04:31.902Z,1017.91
2023-05-06T01:04:59.476Z,1017.61
2023-05-06T01:05:30.548Z,1017.61
2023-05-06T01:06:00.210Z,1017.81
2023-05-06T01:06:32.552Z,1017.81
2023-05-06T01:07:01.622Z,1017.81
2023-05-06T01:07:32.863Z,1017.81
2023-05-06T01:08:03.990Z,1017.91
2023-05-06T01:08:34.741Z,1017.91
2023-05-06T01:09:05.741Z,1017.71
2023-05-06T01:09:37.257Z,1017.71
2023-05-06T01:10:08.263Z,1017.81
2023-05-06T01:10:38.524Z,1017.81
2023-05-06T01:11:16.742Z,1017.81
2023-05-06T01:11:42.255Z,1017.81
2023-05-06T01:12:13.220Z,1017.91
2023-05-06T01:12:42.614Z,1017.91
2023-05-06T01:13:13.378Z,1017.81
2023-05-06T01:13:45.102Z,1017.81
2023-05-06T01:14:16.849Z,1018.01
2023-05-06T01:14:48.092Z,1018.01
2023-05-06T01:15:29.210Z,1017.91
2023-05-06T01:15:48.916Z,1017.91
2023-05-06T01:16:20.730Z,1018.01
2023-05-06T01:16:51.797Z,1017.91
2023-05-06T01:17:21.955Z,1017.91
2023-05-06T01:17:52.510Z,1017.91
2023-05-06T01:18:23.669Z,1017.91
2023-05-06T01:19:00.351Z,1017.71
2023-05-06T01:19:27.297Z,1017.71
2023-05-06T01:19:57.204Z,1017.81
2023-05-06T01:20:45.141Z,1017.81
2023-05-06T01:20:59.552Z,1017.91
2023-05-06T01:21:30.921Z,1017.91
2023-05-06T01:22:01.378Z,1018.01
2023-05-06T01:22:31.802Z,1018.01
2023-05-06T01:23:02.452Z,1018.01
2023-05-06T01:23:34.080Z,1018.01
2023-05-06T01:24:05.914Z,1017.81
2023-05-06T01:24:36.217Z,1017.81
2023-05-06T01:25:08.474Z,1017.81
2023-05-06T01:25:37.804Z,1017.81
2023-05-06T01:26:09.667Z,1017.81
2023-05-06T01:26:40.935Z,1017.81
2023-05-06T01:27:12.456Z,1017.71
2023-05-06T01:27:41.973Z,1017.71
2023-05-06T01:28:13.488Z,1017.61
2023-05-06T01:28:43.663Z,1017.61
2023-05-06T01:29:59.711Z,1017.71
2023-05-06T01:30:19.404Z,1017.81
2023-05-06T01:30:48.395Z,1017.81
2023-05-06T01:31:23.417Z,1017.81
2023-05-06T01:31:52.304Z,1017.71
2023-05-06T01:32:30.202Z,1017.71
2023-05-06T01:33:11.538Z,1017.61
2023-05-06T01:33:23.761Z,1017.61
2023-05-06T01:33:54.608Z,1017.81
2023-05-06T01:34:30.719Z,1017.81
2023-05-06T01:34:56.715Z,1017.91
2023-05-06T01:35:27.066Z,1017.91
2023-05-06T01:35:59.371Z,1017.91
2023-05-06T01:36:28.643Z,1017.91
2023-05-06T01:37:02.197Z,1017.71
2023-05-06T01:37:34.272Z,1017.71
2023-05-06T01:38:03.728Z,1017.81
2023-05-06T01:38:33.448Z,1017.81
2023-05-06T01:39:04.453Z,1017.81
2023-05-06T01:39:35.741Z,1017.81
2023-05-06T01:40:06.834Z,1017.91
2023-05-06T01:40:36.885Z,1017.91
2023-05-06T01:41:09.403Z,1017.81
2023-05-06T01:41:41.310Z,1017.81
2023-05-06T01:42:11.105Z,1017.91
2023-05-06T01:42:42.825Z,1017.91
2023-05-06T01:43:12.765Z,1018.01
2023-05-06T01:43:43.707Z,1018.01
2023-05-06T01:44:14.523Z,1017.81
2023-05-06T01:44:46.055Z,1017.81
2023-05-06T01:45:16.723Z,1017.71
2023-05-06T01:45:46.886Z,1017.71
2023-05-06T01:46:18.055Z,1017.71
2023-05-06T01:46:49.285Z,1017.71
2023-05-06T01:47:20.992Z,1017.71
2023-05-06T01:47:51.710Z,1017.61
2023-05-06T01:48:22.193Z,1017.61
2023-05-06T01:49:24.207Z,1017.91
2023-05-06T01:49:55.317Z,1017.81
2023-05-06T01:50:26.517Z,1017.81
2023-05-06T01:50:57.104Z,1017.71
2023-05-06T01:51:28.422Z,1017.71
2023-05-06T01:51:58.884Z,1017.91
2023-05-06T01:53:02.350Z,1018.01
2023-05-06T01:53:33.825Z,1018.01
2023-05-06T01:54:03.797Z,1017.81
2023-05-06T01:54:52.215Z,1017.81
2023-05-06T01:55:06.676Z,1017.81
2023-05-06T01:55:36.146Z,1017.81
2023-05-06T01:56:07.954Z,1017.81
2023-05-06T01:56:38.792Z,1017.81
2023-05-06T01:57:10.263Z,1017.81
2023-05-06T01:57:40.949Z,1017.81
2023-05-06T01:58:12.222Z,1017.71
2023-05-06T01:58:42.464Z,1017.71
2023-05-06T01:59:13.952Z,1017.91
2023-05-06T01:59:43.947Z,1017.91
2023-05-06T02:00:33.138Z,1017.71
2023-05-06T02:00:46.062Z,1017.71
2023-05-06T02:01:16.710Z,1017.91
2023-05-06T02:01:48.904Z,1017.91
2023-05-06T02:02:22.680Z,1017.91
2023-05-06T02:02:50.019Z,1017.81
2023-05-06T02:03:49.788Z,1017.81
2023-05-06T02:04:22.914Z,1017.81
2023-05-06T02:04:54.387Z,1018.01
2023-05-06T02:05:25.317Z,1018.01
2023-05-06T02:05:55.894Z,1017.71
2023-05-06T02:06:26.832Z,1017.71
2023-05-06T02:06:58.479Z,1017.91
2023-05-06T02:07:31.327Z,1017.91
2023-05-06T02:08:00.352Z,1017.91
2023-05-06T02:08:31.944Z,1017.91
2023-05-06T02:09:03.812Z,1017.71
2023-05-06T02:09:33.706Z,1017.71
2023-05-06T02:10:04.777Z,1017.71
2023-05-06T02:10:35.107Z,1017.71
2023-05-06T02:11:06.428Z,1017.81
2023-05-06T02:11:37.102Z,1017.81
2023-05-06T02:12:08.606Z,1017.91
2023-05-06T02:12:56.157Z,1017.91
2023-05-06T02:13:11.870Z,1017.91
2023-05-06T02:13:42.240Z,1017.91
2023-05-06T02:14:12.525Z,1017.91
2023-05-06T02:14:44.376Z,1017.91
2023-05-06T02:15:15.775Z,1017.81
2023-05-06T02:15:44.743Z,1017.81
2023-05-06T02:16:18.455Z,1017.81
2023-05-06T02:16:46.953Z,1017.81
2023-05-06T02:17:18.287Z,1017.81
2023-05-06T02:17:49.383Z,1017.81
2023-05-06T02:18:20.782Z,1018.01
2023-05-06T02:18:52.385Z,1017.91
2023-05-06T02:19:22.927Z,1017.91
2023-05-06T02:19:53.807Z,1017.81
2023-05-06T02:20:24.852Z,1017.81
2023-05-06T02:20:54.969Z,1018.01
2023-05-06T02:21:39.340Z,1018.01
2023-05-06T02:21:56.902Z,1017.81
2023-05-06T02:22:28.642Z,1017.81
2023-05-06T02:22:59.392Z,1017.61
2023-05-06T02:23:30.731Z,1017.61
2023-05-06T02:24:02.439Z,1017.81
2023-05-06T02:24:33.170Z,1017.81
2023-05-06T02:25:39.920Z,1017.81
2023-05-06T02:26:56.494Z,1017.81
2023-05-06T03:37:03.139Z,1018.18
2023-05-06T03:38:09.950Z,1018.18
2023-05-06T03:38:38.786Z,1018.18
2023-05-06T03:39:08.762Z,1018.18
2023-05-06T03:39:41.377Z,1018.18
2023-05-06T03:40:09.006Z,1018.18
2023-05-06T03:40:39.638Z,1018.18
2023-05-06T03:41:09.916Z,1018.08
2023-05-06T03:41:43.220Z,1018.08
2023-05-06T03:42:43.925Z,1018.01
2023-05-06T03:43:14.391Z,1018.18
2023-05-06T03:43:45.717Z,1018.18
2023-05-06T03:44:16.547Z,1018.08
2023-05-06T03:44:47.259Z,1018.08
2023-05-06T03:45:19.056Z,1018.08
2023-05-06T03:46:20.834Z,1018.18
2023-05-06T03:46:52.105Z,1018.18
2023-05-06T03:47:22.906Z,1018.18
2023-05-06T03:47:53.728Z,1018.18
2023-05-06T03:48:25.585Z,1018.18
2023-05-06T03:49:04.516Z,1018.18
2023-05-06T03:49:26.308Z,1018.18
2023-05-06T03:49:57.618Z,1018.18
2023-05-06T03:50:28.789Z,1018.18
2023-05-06T03:51:30.376Z,1018.01
2023-05-06T03:52:02.480Z,1018.29
2023-05-06T03:52:33.921Z,1018.29
2023-05-06T03:53:04.986Z,1018.18
2023-05-06T03:53:34.986Z,1018.18
2023-05-06T03:54:05.628Z,1018.08
2023-05-06T03:54:36.757Z,1018.08
2023-05-06T03:55:08.772Z,1018.01
2023-05-06T03:55:48.703Z,1018.01
2023-05-06T03:56:09.493Z,1018.18
2023-05-06T03:56:40.427Z,1018.18
2023-05-06T03:57:14.675Z,1018.18
2023-05-06T03:57:43.640Z,1018.18
2023-05-06T03:58:14.144Z,1018.01
2023-05-06T03:58:44.889Z,1018.01
2023-05-06T03:59:15.724Z,1018.18
2023-05-06T04:00:26.112Z,1018.01
2023-05-06T04:01:24.073Z,1018.01
2023-05-06T04:01:59.576Z,1018.18
2023-05-06T04:02:28.868Z,1018.18
2023-05-06T04:02:58.716Z,1018.08
2023-05-06T04:07:33.147Z,1018.18
2023-05-06T04:08:03.426Z,1017.91
2023-05-06T04:08:43.011Z,1017.91
2023-05-06T04:09:04.822Z,1018.18
2023-05-06T04:09:36.740Z,1018.18
2023-05-06T04:10:07.489Z,1018.18
2023-05-06T04:10:38.483Z,1018.18
2023-05-06T04:11:27.038Z,1018.29
2023-05-06T04:11:40.967Z,1018.29
2023-05-06T04:12:11.073Z,1018.18
2023-05-06T04:13:00.756Z,1018.18
2023-05-06T04:13:12.645Z,1018.18
2023-05-06T04:13:43.482Z,1018.18
2023-05-06T04:14:15.632Z,1018.29
2023-05-06T04:14:47.518Z,1018.29
2023-05-06T04:15:16.721Z,1018.29
2023-05-06T04:15:52.628Z,1018.29
2023-05-06T04:16:19.883Z,1018.39
2023-05-06T04:16:50.869Z,1018.29
2023-05-06T04:17:20.930Z,1018.29
2023-05-06T04:17:51.890Z,1018.18
2023-05-06T04:18:22.829Z,1018.18
2023-05-06T04:18:53.930Z,1018.29
2023-05-06T04:19:24.934Z,1018.29
2023-05-06T04:19:55.601Z,1018.29
2023-05-06T04:20:26.743Z,1018.29
2023-05-06T04:20:57.474Z,1018.29
2023-05-06T04:21:29.556Z,1018.29
2023-05-06T04:22:02.266Z,1018.39
2023-05-06T04:22:32.776Z,1018.39
2023-05-06T04:23:02.198Z,1018.29
2023-05-06T04:23:32.576Z,1018.29
2023-05-06T04:24:04.178Z,1018.49
2023-05-06T04:24:34.933Z,1018.49
2023-05-06T04:25:05.945Z,1018.29
2023-05-06T04:25:36.348Z,1018.29
2023-05-06T04:26:07.756Z,1018.39
2023-05-06T04:27:11.557Z,1018.29
2023-05-06T04:27:42.031Z,1018.29
2023-05-06T04:28:13.892Z,1018.18
2023-05-06T04:28:42.364Z,1018.18
2023-05-06T04:29:13.952Z,1018.08
2023-05-06T04:29:45.153Z,1018.08
2023-05-06T04:30:16.702Z,1018.29
2023-05-06T04:30:46.928Z,1018.29
2023-05-06T04:31:17.925Z,1018.39
2023-05-06T04:31:51.104Z,1018.39
2023-05-06T04:32:21.401Z,1018.39
2023-05-06T04:32:52.017Z,1018.39
2023-05-06T04:33:24.263Z,1018.39
2023-05-06T04:33:53.197Z,1018.59
2023-05-06T04:34:23.371Z,1018.59
2023-05-06T04:34:54.932Z,1018.39
2023-05-06T04:35:27.177Z,1018.39
2023-05-06T04:35:56.280Z,1018.49
2023-05-06T04:36:27.766Z,1018.49
2023-05-06T04:37:00.362Z,1018.59
2023-05-06T04:37:29.668Z,1018.59
2023-05-06T04:38:02.469Z,1018.49
2023-05-06T04:38:33.396Z,1018.49
2023-05-06T04:39:03.544Z,1018.59
2023-05-06T04:39:34.512Z,1018.59
2023-05-06T04:40:05.461Z,1018.59
2023-05-06T04:40:36.584Z,1018.59
2023-05-06T04:41:10.269Z,1018.69
2023-05-06T04:41:41.235Z,1018.69
2023-05-06T04:42:10.743Z,1018.69
2023-05-06T04:42:40.199Z,1018.69
2023-05-06T04:43:11.883Z,1018.49
2023-05-06T04:43:41.604Z,1018.49
2023-05-06T04:44:12.598Z,1018.69
2023-05-06T04:44:43.677Z,1018.69
2023-05-06T04:45:15.855Z,1018.69
2023-05-06T04:45:45.672Z,1018.69
2023-05-06T04:46:17.463Z,1018.69
2023-05-06T04:46:50.030Z,1018.69
2023-05-06T04:47:19.848Z,1018.39
2023-05-06T04:47:50.048Z,1018.79
2023-05-06T04:48:21.093Z,1018.79
2023-05-06T04:48:58.125Z,1018.79
2023-05-06T04:49:22.817Z,1018.79
2023-05-06T04:49:53.792Z,1018.69
2023-05-06T04:50:24.922Z,1018.69
2023-05-06T04:50:55.972Z,1018.59
2023-05-06T04:51:27.175Z,1018.59
2023-05-06T04:51:57.969Z,1018.69
2023-05-06T04:52:29.989Z,1018.69
2023-05-06T04:53:00.294Z,1018.79
2023-05-06T04:53:31.456Z,1018.79
2023-05-06T04:54:01.684Z,1018.69
2023-05-06T04:54:33.240Z,1018.69
2023-05-06T04:55:03.696Z,1018.59
2023-05-06T04:55:34.876Z,1018.59
2023-05-06T04:56:06.071Z,1018.79
2023-05-06T04:56:36.928Z,1018.79
2023-05-06T04:57:09.137Z,1018.59
2023-05-06T04:57:39.523Z,1018.59
2023-05-06T04:58:10.827Z,1018.79
2023-05-06T04:58:41.179Z,1018.79
2023-05-06T04:59:12.237Z,1018.79
2023-05-06T04:59:42.954Z,1018.79
2023-05-06T05:00:15.395Z,1018.79
2023-05-06T05:00:45.579Z,1018.79
2023-05-06T05:01:16.101Z,1018.59
2023-05-06T05:01:46.590Z,1018.59
2023-05-06T05:02:17.455Z,1018.69
2023-05-06T05:02:49.179Z,1018.69
2023-05-06T05:03:20.680Z,1018.59
2023-05-06T05:03:51.974Z,1018.69
2023-05-06T05:04:21.845Z,1018.69
2023-05-06T05:04:52.939Z,1018.49
2023-05-06T05:05:24.098Z,1018.49
2023-05-06T05:05:54.735Z,1018.79
2023-05-06T05:06:25.503Z,1018.79
2023-05-06T05:06:56.404Z,1018.79
2023-05-06T05:07:27.295Z,1018.79
2023-05-06T05:07:58.550Z,1018.90
2023-05-06T05:08:30.459Z,1018.90
2023-05-06T05:09:01.040Z,1018.69
2023-05-06T05:09:31.605Z,1018.69
2023-05-06T05:10:03.313Z,1018.59
2023-05-06T05:10:33.696Z,1018.59
2023-05-06T05:11:05.064Z,1018.69
2023-05-06T05:12:12.361Z,1019.00
2023-05-06T05:12:55.542Z,1019.00
2023-05-06T05:13:09.073Z,1018.90
2023-05-06T05:14:12.116Z,1018.79
2023-05-06T05:14:42.467Z,1018.79
2023-05-06T05:15:13.000Z,1019.00
2023-05-06T05:15:43.980Z,1019.00
2023-05-06T05:16:14.761Z,1018.79
2023-05-06T05:16:45.968Z,1018.79
2023-05-06T05:17:16.811Z,1018.79
2023-05-06T05:17:47.354Z,1018.79
2023-05-06T05:18:18.981Z,1018.79
2023-05-06T05:18:50.916Z,1019.00
2023-05-06T05:19:21.257Z,1019.00
2023-05-06T05:20:22.730Z,1018.79
2023-05-06T05:20:54.245Z,1018.90
2023-05-06T05:21:25.585Z,1018.90
2023-05-06T05:21:55.534Z,1018.90
2023-05-06T05:22:26.524Z,1018.90
2023-05-06T05:22:57.665Z,1018.90
2023-05-06T05:23:28.298Z,1018.90
2023-05-06T05:23:59.354Z,1018.90
2023-05-06T05:24:30.944Z,1018.90
2023-05-06T05:25:02.888Z,1019.00
2023-05-06T05:25:33.323Z,1019.00
2023-05-06T05:26:04.090Z,1018.79
2023-05-06T05:26:35.228Z,1018.79
2023-05-06T05:27:36.552Z,1018.90
2023-05-06T05:28:07.712Z,1019.00
2023-05-06T05:28:38.882Z,1019.00
2023-05-06T05:29:09.639Z,1018.90
2023-05-06T05:32:07.755Z,1019.10
2023-05-06T05:32:21.265Z,1019.00
2023-05-06T05:32:47.471Z,1019.00
2023-05-06T05:33:18.539Z,1019.00
2023-05-06T05:33:48.746Z,1019.00
2023-05-06T05:34:19.338Z,1019.20
2023-05-06T05:34:51.174Z,1018.90
2023-05-06T05:35:21.844Z,1018.90
2023-05-06T05:35:52.473Z,1019.00
2023-05-06T05:36:25.254Z,1019.00
2023-05-06T05:36:55.985Z,1018.90
2023-05-06T05:37:39.797Z,1018.90
2023-05-06T05:37:57.913Z,1018.90
2023-05-06T05:38:28.147Z,1018.90
2023-05-06T05:38:59.182Z,1019.10
2023-05-06T05:39:29.686Z,1019.10
2023-05-06T05:40:01.279Z,1019.10
2023-05-06T05:40:35.185Z,1019.10
2023-05-06T05:41:03.036Z,1018.90
2023-05-06T05:41:41.492Z,1018.90
2023-05-06T05:42:05.326Z,1019.00
2023-05-06T05:42:53.027Z,1019.30
2023-05-06T05:43:08.066Z,1019.30
2023-05-06T05:43:52.447Z,1019.30
2023-05-06T05:44:11.599Z,1019.10
2023-05-06T05:44:40.855Z,1019.10
2023-05-06T05:45:11.937Z,1019.10
2023-05-06T05:45:41.910Z,1019.10
2023-05-06T05:46:13.565Z,1019.10
2023-05-06T05:46:44.409Z,1019.10
2023-05-06T05:47:15.258Z,1018.90
2023-05-06T05:47:47.154Z,1018.90
2023-05-06T05:48:18.317Z,1018.90
2023-05-06T05:48:48.596Z,1018.90
2023-05-06T05:49:19.629Z,1019.00
2023-05-06T05:49:59.366Z,1019.00
2023-05-06T05:50:22.691Z,1019.00
2023-05-06T05:50:52.228Z,1019.00
2023-05-06T05:51:28.312Z,1019.00
2023-05-06T05:51:55.112Z,1018.90
2023-05-06T05:52:24.856Z,1018.90
2023-05-06T05:52:59.060Z,1019.00
2023-05-06T05:53:31.757Z,1019.00
2023-05-06T05:53:58.667Z,1019.10
2023-05-06T05:54:30.021Z,1019.10
2023-05-06T05:55:01.460Z,1019.00
2023-05-06T05:55:31.097Z,1019.00
2023-05-06T05:56:02.117Z,1019.10
2023-05-06T05:56:32.936Z,1019.10
2023-05-06T05:57:03.894Z,1019.00
2023-05-06T05:57:35.282Z,1019.00
2023-05-06T05:58:06.930Z,1019.00
2023-05-06T05:58:37.750Z,1019.00
2023-05-06T05:59:08.328Z,1019.00
2023-05-06T05:59:41.803Z,1019.00
2023-05-06T06:00:13.448Z,1019.10
2023-05-06T06:00:40.473Z,1019.10
2023-05-06T06:01:30.775Z,1019.10
2023-05-06T06:01:43.256Z,1019.10
2023-05-06T06:02:13.882Z,1019.10
2023-05-06T06:02:45.030Z,1019.10
2023-05-06T06:03:16.769Z,1019.20
2023-05-06T06:03:47.428Z,1019.20
2023-05-06T06:04:18.325Z,1019.00
2023-05-06T06:04:48.861Z,1019.00
2023-05-06T06:05:19.722Z,1019.20
2023-05-06T06:05:51.305Z,1019.20
2023-05-06T06:06:21.723Z,1019.20
2023-05-06T06:06:54.371Z,1019.20
2023-05-06T06:07:24.348Z,1019.20
2023-05-06T06:08:07.089Z,1019.00
2023-05-06T06:08:31.616Z,1019.00
2023-05-06T06:09:08.564Z,1019.20
2023-05-06T06:09:28.419Z,1019.20
2023-05-06T06:09:59.629Z,1019.20
2023-05-06T06:10:39.398Z,1019.20
2023-05-06T06:11:01.807Z,1019.10
2023-05-06T06:11:34.820Z,1019.10
2023-05-06T06:12:05.282Z,1019.20
2023-05-06T06:12:34.112Z,1019.20
2023-05-06T06:28:01.910Z,1019.10
2023-05-06T06:28:35.474Z,1019.30
2023-05-06T06:29:07.662Z,1019.30
2023-05-06T06:29:39.733Z,1019.30
2023-05-06T06:30:16.491Z,1019.10
2023-05-06T06:30:40.536Z,1019.10
2023-05-06T06:31:12.127Z,1019.00
2023-05-06T06:31:51.902Z,1019.00
2023-05-06T06:32:13.042Z,1019.20
2023-05-06T06:32:43.062Z,1019.20
2023-05-06T06:33:14.438Z,1019.10
2023-05-06T06:33:45.340Z,1019.10
2023-05-06T06:34:16.550Z,1019.10
2023-05-06T06:35:08.793Z,1019.10
2023-05-06T06:35:21.716Z,1019.10
2023-05-06T06:35:50.940Z,1019.10
2023-05-06T06:37:26.870Z,1019.10
2023-05-06T06:38:08.967Z,1019.20
2023-05-06T06:38:25.115Z,1019.20
2023-05-06T06:38:56.037Z,1019.10
2023-05-06T06:39:27.045Z,1019.10
2023-05-06T06:39:57.600Z,1019.00
2023-05-06T06:40:28.770Z,1019.00
2023-05-06T06:41:06.248Z,1019.20
2023-05-06T06:41:33.583Z,1019.20
2023-05-06T06:42:03.550Z,1019.20
2023-05-06T06:42:36.282Z,1019.20
2023-05-06T06:43:04.150Z,1019.20
2023-05-06T06:43:35.027Z,1019.20
2023-05-06T06:44:05.598Z,1019.20
2023-05-06T06:44:37.731Z,1019.20
2023-05-06T06:45:10.314Z,1019.20
2023-05-06T06:45:38.508Z,1019.20
2023-05-06T06:50:17.288Z,1019.10
2023-05-06T06:50:49.542Z,1019.10
2023-05-06T06:51:21.554Z,1019.30
2023-05-06T06:52:51.757Z,1019.61
2023-05-06T06:53:25.173Z,1019.30
2023-05-06T06:53:55.584Z,1019.30
2023-05-06T06:54:36.137Z,1019.30
2023-05-06T06:54:58.038Z,1019.40
2023-05-06T06:55:27.432Z,1019.40
2023-05-06T06:55:58.423Z,1019.61
2023-05-06T06:56:38.262Z,1019.61
2023-05-06T06:57:00.995Z,1019.40
2023-05-06T06:57:36.386Z,1019.40
2023-05-06T06:58:02.332Z,1019.30
2023-05-06T06:58:33.652Z,1019.30
2023-05-06T06:59:06.811Z,1019.10
2023-05-06T06:59:38.103Z,1019.10
2023-05-06T07:00:12.277Z,1019.40
2023-05-06T07:00:43.809Z,1019.40
2023-05-06T07:01:50.853Z,1019.40
2023-05-06T07:01:53.854Z,1019.40
2023-05-06T07:02:13.973Z,1019.40
2023-05-06T07:02:44.744Z,1019.40
2023-05-06T07:03:16.180Z,1019.10
2023-05-06T07:03:43.508Z,1019.10
2023-05-06T07:04:14.890Z,1019.20
2023-05-06T07:04:47.079Z,1019.20
2023-05-06T07:05:18.821Z,1019.20
2023-05-06T07:05:48.881Z,1019.20
2023-05-06T07:06:20.436Z,1019.40
2023-05-06T07:07:06.402Z,1019.40
2023-05-06T07:07:20.910Z,1019.40
2023-05-06T07:07:52.270Z,1019.40
2023-05-06T07:08:22.464Z,1019.40
2023-05-06T07:08:53.553Z,1019.40
2023-05-06T07:09:25.084Z,1019.40
2023-05-06T07:09:55.793Z,1019.61
2023-05-06T07:10:28.015Z,1019.61
2023-05-06T07:10:59.682Z,1019.61
2023-05-06T07:11:32.170Z,1019.61
2023-05-06T07:12:00.468Z,1019.40
2023-05-06T07:12:31.047Z,1019.40
2023-05-06T07:13:02.050Z,1019.40
2023-05-06T07:13:33.649Z,1019.40
2023-05-06T07:14:04.187Z,1019.30
2023-05-06T07:14:37.206Z,1019.30
2023-05-06T07:15:07.601Z,1019.30
2023-05-06T07:15:37.868Z,1019.30
2023-05-06T07:16:09.559Z,1019.40
2023-05-06T07:16:42.132Z,1019.40
2023-05-06T07:17:11.674Z,1019.71
2023-05-06T07:17:42.644Z,1019.71
2023-05-06T07:18:16.607Z,1019.61
2023-05-06T07:18:44.350Z,1019.61
2023-05-06T07:19:14.996Z,1019.61
2023-05-06T07:19:47.301Z,1019.61
2023-05-06T07:20:18.450Z,1019.50
2023-05-06T07:20:49.862Z,1019.50
2023-05-06T07:21:32.656Z,1019.50
2023-05-06T07:21:50.607Z,1019.50
2023-05-06T07:22:21.708Z,1019.50
2023-05-06T07:22:52.506Z,1019.40
2023-05-06T07:23:24.607Z,1019.40
2023-05-06T07:23:53.711Z,1019.50
2023-05-06T07:24:26.273Z,1019.50
2023-05-06T07:24:59.379Z,1019.40
2023-05-06T07:25:30.789Z,1019.40
2023-05-06T07:25:59.681Z,1019.40
2023-05-06T07:26:29.636Z,1019.40
2023-05-06T07:27:03.205Z,1019.40
2023-05-06T07:27:31.760Z,1019.40
2023-05-06T07:28:02.235Z,1019.50
2023-05-06T07:28:33.303Z,1019.50
2023-05-06T07:29:03.703Z,1019.40
2023-05-06T07:29:34.573Z,1019.40
2023-05-06T07:30:09.672Z,1019.50
2023-05-06T07:31:54.654Z,1019.50
2023-05-06T07:32:12.008Z,1019.30
2023-05-06T07:32:50.903Z,1019.30
2023-05-06T07:33:20.350Z,1019.61
2023-05-06T07:34:14.304Z,1019.61
2023-05-06T07:34:46.585Z,1019.61
2023-05-06T07:35:18.503Z,1019.40
2023-05-06T07:35:49.553Z,1019.40
2023-05-06T07:36:19.876Z,1019.40
2023-05-06T07:36:49.952Z,1019.40
2023-05-06T07:37:20.293Z,1019.50
2023-05-06T07:37:51.179Z,1019.50
2023-05-06T07:38:22.765Z,1019.50
2023-05-06T07:38:53.820Z,1019.71
2023-05-06T07:39:24.366Z,1019.71
2023-05-06T07:39:54.671Z,1019.61
2023-05-06T07:40:26.446Z,1019.61
2023-05-06T07:40:57.289Z,1019.50
2023-05-06T07:41:35.270Z,1019.50
2023-05-06T07:42:03.212Z,1019.71
2023-05-06T07:42:31.830Z,1019.71
2023-05-06T07:43:04.802Z,1019.61
2023-05-06T07:43:33.168Z,1019.61
2023-05-06T07:44:08.464Z,1019.50
2023-05-06T07:44:34.828Z,1019.50
2023-05-06T07:45:13.599Z,1019.61
2023-05-06T07:45:39.234Z,1019.61
2023-05-06T07:46:09.295Z,1019.71
2023-05-06T07:46:38.991Z,1019.71
2023-05-06T07:47:10.012Z,1019.71
2023-05-06T07:47:40.062Z,1019.71
2023-05-06T07:48:12.349Z,1019.61
2023-05-06T07:48:46.199Z,1019.61
2023-05-06T07:49:14.243Z,1019.61
2023-05-06T07:49:43.442Z,1019.61
2023-05-06T07:50:14.916Z,1019.71
2023-05-06T07:50:51.294Z,1019.71
2023-05-06T07:51:18.429Z,1019.71
2023-05-06T07:51:49.600Z,1019.71
2023-05-06T07:52:50.193Z,1019.50
2023-05-06T07:53:22.257Z,1019.71
2023-05-06T07:54:23.424Z,1019.71
2023-05-06T07:54:53.440Z,1019.71
2023-05-06T07:55:35.081Z,1019.71
2023-05-06T07:55:57.213Z,1019.50
2023-05-06T07:56:28.821Z,1019.50
2023-05-06T07:56:59.003Z,1019.61
2023-05-06T07:57:46.709Z,1019.61
2023-05-06T07:58:00.218Z,1019.71
2023-05-06T07:58:31.136Z,1019.71
2023-05-06T07:59:01.865Z,1019.71
2023-05-06T07:59:32.803Z,1019.71
2023-05-06T08:00:04.939Z,1019.50
2023-05-06T08:01:00.116Z,1019.50
2023-05-06T08:01:04.759Z,1019.50
2023-05-06T08:01:36.534Z,1019.50
2023-05-06T08:02:06.632Z,1019.81
2023-05-06T08:17:20.167Z,1019.61
2023-05-06T08:17:38.082Z,1019.71
2023-05-06T08:18:25.779Z,1019.91
2023-05-06T08:18:40.102Z,1019.91
2023-05-06T08:20:17.059Z,1019.81
2023-05-06T08:21:17.277Z,1019.91
2023-05-06T08:21:48.969Z,1019.91
2023-05-06T08:22:21.448Z,1020.01
2023-05-06T08:22:50.163Z,1020.01
2023-05-06T08:23:49.977Z,1019.81
2023-05-06T08:24:21.059Z,1019.81
2023-05-06T08:24:59.862Z,1019.91
2023-05-06T08:25:27.573Z,1019.91
2023-05-06T08:25:57.193Z,1019.81
2023-05-06T08:26:25.893Z,1019.81
2023-05-06T08:26:57.083Z,1019.91
2023-05-06T08:27:27.781Z,1019.91
2023-05-06T08:27:58.504Z,1019.71
2023-05-06T08:28:28.877Z,1019.71
2023-05-06T08:29:00.961Z,1019.91
2023-05-06T08:29:31.769Z,1019.91
2023-05-06T08:30:02.893Z,1019.91
2023-05-06T08:30:38.901Z,1019.91
2023-05-06T08:31:05.368Z,1019.71
2023-05-06T08:31:36.589Z,1019.71
2023-05-06T08:32:25.313Z,1019.71
2023-05-06T08:32:39.890Z,1019.71
2023-05-06T08:33:09.155Z,1020.01
2023-05-06T08:33:41.547Z,1020.01
2023-05-06T08:34:14.609Z,1019.81
2023-05-06T08:34:41.285Z,1019.81
2023-05-06T08:35:28.519Z,1019.91
2023-05-06T08:35:45.300Z,1019.91
2023-05-06T08:36:32.887Z,1020.01
2023-05-06T08:36:47.876Z,1020.01
2023-05-06T08:37:19.302Z,1019.91
2023-05-06T08:37:47.152Z,1019.91
2023-05-06T08:38:19.344Z,1019.71
2023-05-06T08:38:50.457Z,1019.71
2023-05-06T08:39:20.970Z,1019.71
2023-05-06T08:39:52.556Z,1019.81
2023-05-06T08:40:25.337Z,1019.81
2023-05-06T08:40:54.749Z,1020.01
2023-05-06T08:41:24.594Z,1020.01